sensor_id;sensor_type;location;lat;lon;timestamp;P1;durP1;ratioP1;P2;durP2;ratioP2
59856;SDS011;45733;52.668;6.860;2023-07-31T00:01:04;0.50;;;0.50;;
59856;SDS011;45733;52.668;6.860;2023-07-31T00:03:29;0.50;;;0.50;;
59856;SDS011;45733;52.668;6.860;2023-07-31T00:05:55;0.50;;;0.50;;
59856;SDS011;45733;52.668;6.860;2023-07-31T00:08:21;0.50;;;0.50;;
59856;SDS011;45733;52.668;6.860;2023-07-31T00:10:47;0.50;;;0.50;;
59856;SDS011;45733;52.668;6.860;2023-07-31T00:13:16;0.50;;;0.50;;
59856;SDS011;45733;52.668;6.860;2023-07-31T00:15:41;0.50;;;0.50;;
59856;SDS011;45733;52.668;6.860;2023-07-31T00:18:07;0.50;;;0.50;;
59856;SDS011;45733;52.668;6.860;2023-07-31T00:20:32;0.50;;;0.50;;
59856;SDS011;45733;52.668;6.860;2023-07-31T00:22:58;0.50;;;0.50;;
59856;SDS011;45733;52.668;6.860;2023-07-31T00:25:24;0.50;;;0.50;;
59856;SDS011;45733;52.668;6.860;2023-07-31T00:27:49;0.50;;;0.50;;
59856;SDS011;45733;52.668;6.860;2023-07-31T00:30:15;0.50;;;0.50;;
59856;SDS011;45733;52.668;6.860;2023-07-31T00:32:41;0.50;;;0.50;;
59856;SDS011;45733;52.668;6.860;2023-07-31T00:35:07;0.50;;;0.50;;
59856;SDS011;45733;52.668;6.860;2023-07-31T00:37:32;0.50;;;0.50;;
59856;SDS011;45733;52.668;6.860;2023-07-31T00:40:01;0.50;;;0.50;;
59856;SDS011;45733;52.668;6.860;2023-07-31T00:42:28;0.50;;;0.50;;
59856;SDS011;45733;52.668;6.860;2023-07-31T00:44:54;0.50;;;0.50;;
59856;SDS011;45733;52.668;6.860;2023-07-31T00:47:23;0.50;;;0.50;;
59856;SDS011;45733;52.668;6.860;2023-07-31T00:49:48;0.50;;;0.50;;
59856;SDS011;45733;52.668;6.860;2023-07-31T00:52:14;0.50;;;0.50;;
59856;SDS011;45733;52.668;6.860;2023-07-31T00:54:40;0.50;;;0.50;;
59856;SDS011;45733;52.668;6.860;2023-07-31T00:57:06;0.50;;;0.50;;
59856;SDS011;45733;52.668;6.860;2023-07-31T00:59:33;0.50;;;0.50;;
59856;SDS011;45733;52.668;6.860;2023-07-31T01:01:59;0.50;;;0.50;;
59856;SDS011;45733;52.668;6.860;2023-07-31T01:04:25;0.55;;;0.55;;
59856;SDS011;45733;52.668;6.860;2023-07-31T01:07:03;0.40;;;0.40;;
59856;SDS011;45733;52.668;6.860;2023-07-31T01:09:39;0.50;;;0.50;;
59856;SDS011;45733;52.668;6.860;2023-07-31T01:12:15;0.50;;;0.50;;
59856;SDS011;45733;52.668;6.860;2023-07-31T01:14:51;0.50;;;0.50;;
59856;SDS011;45733;52.668;6.860;2023-07-31T01:17:26;0.50;;;0.50;;
59856;SDS011;45733;52.668;6.860;2023-07-31T01:19:52;0.50;;;0.50;;
59856;SDS011;45733;52.668;6.860;2023-07-31T01:28:29;0.50;;;0.50;;
59856;SDS011;45733;52.668;6.860;2023-07-31T01:31:06;0.60;;;0.60;;
59856;SDS011;45733;52.668;6.860;2023-07-31T01:33:35;0.50;;;0.50;;
59856;SDS011;45733;52.668;6.860;2023-07-31T01:36:02;0.50;;;0.50;;
59856;SDS011;45733;52.668;6.860;2023-07-31T01:38:28;0.50;;;0.50;;
59856;SDS011;45733;52.668;6.860;2023-07-31T01:40:54;0.50;;;0.50;;
59856;SDS011;45733;52.668;6.860;2023-07-31T01:43:20;0.50;;;0.50;;
59856;SDS011;45733;52.668;6.860;2023-07-31T01:45:45;0.50;;;0.50;;
59856;SDS011;45733;52.668;6.860;2023-07-31T01:48:11;0.50;;;0.50;;
59856;SDS011;45733;52.668;6.860;2023-07-31T01:50:37;0.50;;;0.50;;
59856;SDS011;45733;52.668;6.860;2023-07-31T01:53:02;0.50;;;0.50;;
59856;SDS011;45733;52.668;6.860;2023-07-31T01:55:28;0.50;;;0.50;;
59856;SDS011;45733;52.668;6.860;2023-07-31T01:57:53;0.52;;;0.52;;
59856;SDS011;45733;52.668;6.860;2023-07-31T02:00:19;0.50;;;0.50;;
59856;SDS011;45733;52.668;6.860;2023-07-31T02:02:45;0.50;;;0.50;;
59856;SDS011;45733;52.668;6.860;2023-07-31T02:05:10;0.50;;;0.50;;
59856;SDS011;45733;52.668;6.860;2023-07-31T02:07:36;0.60;;;0.60;;
59856;SDS011;45733;52.668;6.860;2023-07-31T02:10:02;0.60;;;0.60;;
59856;SDS011;45733;52.668;6.860;2023-07-31T02:12:27;0.60;;;0.60;;
59856;SDS011;45733;52.668;6.860;2023-07-31T02:14:56;0.60;;;0.60;;
59856;SDS011;45733;52.668;6.860;2023-07-31T02:17:21;0.60;;;0.60;;
59856;SDS011;45733;52.668;6.860;2023-07-31T02:19:47;0.60;;;0.60;;
59856;SDS011;45733;52.668;6.860;2023-07-31T02:22:13;0.60;;;0.60;;
59856;SDS011;45733;52.668;6.860;2023-07-31T02:24:38;0.60;;;0.60;;
59856;SDS011;45733;52.668;6.860;2023-07-31T02:27:04;0.60;;;0.60;;
59856;SDS011;45733;52.668;6.860;2023-07-31T02:29:30;0.60;;;0.60;;
59856;SDS011;45733;52.668;6.860;2023-07-31T02:31:56;0.60;;;0.60;;
59856;SDS011;45733;52.668;6.860;2023-07-31T02:34:21;0.60;;;0.60;;
59856;SDS011;45733;52.668;6.860;2023-07-31T02:36:47;0.60;;;0.60;;
59856;SDS011;45733;52.668;6.860;2023-07-31T02:39:12;0.60;;;0.60;;
59856;SDS011;45733;52.668;6.860;2023-07-31T02:41:38;0.70;;;0.70;;
59856;SDS011;45733;52.668;6.860;2023-07-31T02:44:04;0.60;;;0.60;;
59856;SDS011;45733;52.668;6.860;2023-07-31T02:46:29;0.68;;;0.68;;
59856;SDS011;45733;52.668;6.860;2023-07-31T02:48:55;0.60;;;0.60;;
59856;SDS011;45733;52.668;6.860;2023-07-31T02:51:21;0.60;;;0.60;;
59856;SDS011;45733;52.668;6.860;2023-07-31T02:53:47;0.70;;;0.70;;
59856;SDS011;45733;52.668;6.860;2023-07-31T02:56:13;0.60;;;0.60;;
59856;SDS011;45733;52.668;6.860;2023-07-31T02:58:38;0.70;;;0.70;;
59856;SDS011;45733;52.668;6.860;2023-07-31T03:01:04;0.70;;;0.70;;
59856;SDS011;45733;52.668;6.860;2023-07-31T03:03:30;0.60;;;0.60;;
59856;SDS011;45733;52.668;6.860;2023-07-31T03:05:56;0.60;;;0.60;;
59856;SDS011;45733;52.668;6.860;2023-07-31T03:08:22;0.60;;;0.60;;
59856;SDS011;45733;52.668;6.860;2023-07-31T03:10:48;0.60;;;0.60;;
59856;SDS011;45733;52.668;6.860;2023-07-31T03:13:14;0.60;;;0.60;;
59856;SDS011;45733;52.668;6.860;2023-07-31T03:15:41;0.60;;;0.60;;
59856;SDS011;45733;52.668;6.860;2023-07-31T03:18:08;0.70;;;0.70;;
59856;SDS011;45733;52.668;6.860;2023-07-31T03:20:34;0.70;;;0.70;;
59856;SDS011;45733;52.668;6.860;2023-07-31T03:22:59;0.63;;;0.63;;
59856;SDS011;45733;52.668;6.860;2023-07-31T03:25:25;0.68;;;0.68;;
59856;SDS011;45733;52.668;6.860;2023-07-31T03:27:50;0.70;;;0.70;;
59856;SDS011;45733;52.668;6.860;2023-07-31T03:30:16;0.70;;;0.70;;
59856;SDS011;45733;52.668;6.860;2023-07-31T03:32:42;0.70;;;0.70;;
59856;SDS011;45733;52.668;6.860;2023-07-31T03:35:07;0.70;;;0.70;;
59856;SDS011;45733;52.668;6.860;2023-07-31T03:37:33;0.75;;;0.75;;
59856;SDS011;45733;52.668;6.860;2023-07-31T03:39:59;0.70;;;0.70;;
59856;SDS011;45733;52.668;6.860;2023-07-31T03:42:24;0.75;;;0.75;;
59856;SDS011;45733;52.668;6.860;2023-07-31T03:44:50;0.70;;;0.70;;
59856;SDS011;45733;52.668;6.860;2023-07-31T03:47:15;0.70;;;0.70;;
59856;SDS011;45733;52.668;6.860;2023-07-31T03:49:41;0.68;;;0.68;;
59856;SDS011;45733;52.668;6.860;2023-07-31T03:52:07;0.70;;;0.70;;
59856;SDS011;45733;52.668;6.860;2023-07-31T03:54:33;0.70;;;0.70;;
59856;SDS011;45733;52.668;6.860;2023-07-31T03:56:58;0.73;;;0.73;;
59856;SDS011;45733;52.668;6.860;2023-07-31T03:59:24;0.75;;;0.75;;
59856;SDS011;45733;52.668;6.860;2023-07-31T04:01:49;0.70;;;0.70;;
59856;SDS011;45733;52.668;6.860;2023-07-31T04:04:15;0.77;;;0.77;;
59856;SDS011;45733;52.668;6.860;2023-07-31T04:06:41;0.75;;;0.75;;
59856;SDS011;45733;52.668;6.860;2023-07-31T04:09:06;0.80;;;0.80;;
59856;SDS011;45733;52.668;6.860;2023-07-31T04:11:32;0.73;;;0.73;;
59856;SDS011;45733;52.668;6.860;2023-07-31T04:13:57;0.80;;;0.80;;
59856;SDS011;45733;52.668;6.860;2023-07-31T04:16:23;0.80;;;0.80;;
59856;SDS011;45733;52.668;6.860;2023-07-31T04:18:49;0.75;;;0.75;;
59856;SDS011;45733;52.668;6.860;2023-07-31T04:21:14;0.80;;;0.80;;
59856;SDS011;45733;52.668;6.860;2023-07-31T04:23:40;0.80;;;0.80;;
59856;SDS011;45733;52.668;6.860;2023-07-31T04:26:06;0.70;;;0.70;;
59856;SDS011;45733;52.668;6.860;2023-07-31T04:28:32;0.70;;;0.70;;
59856;SDS011;45733;52.668;6.860;2023-07-31T04:30:57;0.70;;;0.70;;
59856;SDS011;45733;52.668;6.860;2023-07-31T04:33:23;0.80;;;0.80;;
59856;SDS011;45733;52.668;6.860;2023-07-31T04:35:50;0.70;;;0.70;;
59856;SDS011;45733;52.668;6.860;2023-07-31T04:38:17;0.80;;;0.80;;
59856;SDS011;45733;52.668;6.860;2023-07-31T04:40:46;0.80;;;0.80;;
59856;SDS011;45733;52.668;6.860;2023-07-31T04:43:13;0.80;;;0.80;;
59856;SDS011;45733;52.668;6.860;2023-07-31T04:45:38;0.80;;;0.80;;
59856;SDS011;45733;52.668;6.860;2023-07-31T04:48:04;0.75;;;0.75;;
59856;SDS011;45733;52.668;6.860;2023-07-31T04:50:30;0.80;;;0.80;;
59856;SDS011;45733;52.668;6.860;2023-07-31T04:52:56;0.70;;;0.70;;
59856;SDS011;45733;52.668;6.860;2023-07-31T04:55:21;0.80;;;0.80;;
59856;SDS011;45733;52.668;6.860;2023-07-31T04:57:47;0.80;;;0.80;;
59856;SDS011;45733;52.668;6.860;2023-07-31T05:00:13;0.90;;;0.90;;
59856;SDS011;45733;52.668;6.860;2023-07-31T05:02:38;0.70;;;0.70;;
59856;SDS011;45733;52.668;6.860;2023-07-31T05:05:04;0.80;;;0.80;;
59856;SDS011;45733;52.668;6.860;2023-07-31T05:07:30;0.80;;;0.80;;
59856;SDS011;45733;52.668;6.860;2023-07-31T05:09:55;0.80;;;0.80;;
59856;SDS011;45733;52.668;6.860;2023-07-31T05:12:21;0.80;;;0.80;;
59856;SDS011;45733;52.668;6.860;2023-07-31T05:14:47;0.80;;;0.80;;
59856;SDS011;45733;52.668;6.860;2023-07-31T05:17:12;0.90;;;0.90;;
59856;SDS011;45733;52.668;6.860;2023-07-31T05:19:38;0.82;;;0.82;;
59856;SDS011;45733;52.668;6.860;2023-07-31T05:22:04;0.90;;;0.90;;
59856;SDS011;45733;52.668;6.860;2023-07-31T05:24:29;0.90;;;0.90;;
59856;SDS011;45733;52.668;6.860;2023-07-31T05:26:55;0.95;;;0.95;;
59856;SDS011;45733;52.668;6.860;2023-07-31T05:29:21;0.90;;;0.90;;
59856;SDS011;45733;52.668;6.860;2023-07-31T05:31:46;0.85;;;0.85;;
59856;SDS011;45733;52.668;6.860;2023-07-31T05:34:12;1.00;;;1.00;;
59856;SDS011;45733;52.668;6.860;2023-07-31T05:36:38;0.90;;;0.90;;
59856;SDS011;45733;52.668;6.860;2023-07-31T05:39:03;0.85;;;0.85;;
59856;SDS011;45733;52.668;6.860;2023-07-31T05:41:32;0.90;;;0.90;;
59856;SDS011;45733;52.668;6.860;2023-07-31T05:43:57;0.98;;;0.98;;
59856;SDS011;45733;52.668;6.860;2023-07-31T05:46:23;1.00;;;1.00;;
59856;SDS011;45733;52.668;6.860;2023-07-31T05:48:49;0.95;;;0.95;;
59856;SDS011;45733;52.668;6.860;2023-07-31T05:51:14;0.90;;;0.90;;
59856;SDS011;45733;52.668;6.860;2023-07-31T05:53:40;0.82;;;0.82;;
59856;SDS011;45733;52.668;6.860;2023-07-31T05:56:06;0.90;;;0.90;;
59856;SDS011;45733;52.668;6.860;2023-07-31T05:58:32;1.08;;;1.08;;
59856;SDS011;45733;52.668;6.860;2023-07-31T06:00:57;1.00;;;1.00;;
59856;SDS011;45733;52.668;6.860;2023-07-31T06:03:23;1.00;;;1.00;;
59856;SDS011;45733;52.668;6.860;2023-07-31T06:05:49;1.05;;;1.05;;
59856;SDS011;45733;52.668;6.860;2023-07-31T06:08:15;1.10;;;1.10;;
59856;SDS011;45733;52.668;6.860;2023-07-31T06:10:40;0.82;;;0.82;;
59856;SDS011;45733;52.668;6.860;2023-07-31T06:13:06;1.00;;;1.00;;
59856;SDS011;45733;52.668;6.860;2023-07-31T06:15:31;0.85;;;0.85;;
59856;SDS011;45733;52.668;6.860;2023-07-31T06:17:57;0.90;;;0.90;;
59856;SDS011;45733;52.668;6.860;2023-07-31T06:20:24;0.90;;;0.90;;
59856;SDS011;45733;52.668;6.860;2023-07-31T06:22:49;1.00;;;1.00;;
59856;SDS011;45733;52.668;6.860;2023-07-31T06:25:15;0.90;;;0.90;;
59856;SDS011;45733;52.668;6.860;2023-07-31T06:27:41;0.93;;;0.93;;
59856;SDS011;45733;52.668;6.860;2023-07-31T06:30:06;0.90;;;0.90;;
59856;SDS011;45733;52.668;6.860;2023-07-31T06:32:32;0.90;;;0.90;;
59856;SDS011;45733;52.668;6.860;2023-07-31T06:34:58;0.80;;;0.80;;
59856;SDS011;45733;52.668;6.860;2023-07-31T06:37:24;1.00;;;1.00;;
59856;SDS011;45733;52.668;6.860;2023-07-31T06:39:49;0.90;;;0.90;;
59856;SDS011;45733;52.668;6.860;2023-07-31T06:42:15;1.00;;;1.00;;
59856;SDS011;45733;52.668;6.860;2023-07-31T06:44:40;0.80;;;0.80;;
59856;SDS011;45733;52.668;6.860;2023-07-31T06:47:06;0.90;;;0.90;;
59856;SDS011;45733;52.668;6.860;2023-07-31T06:49:32;1.00;;;1.00;;
59856;SDS011;45733;52.668;6.860;2023-07-31T06:51:57;0.90;;;0.90;;
59856;SDS011;45733;52.668;6.860;2023-07-31T06:54:23;0.90;;;0.90;;
59856;SDS011;45733;52.668;6.860;2023-07-31T06:56:48;0.90;;;0.90;;
59856;SDS011;45733;52.668;6.860;2023-07-31T06:59:14;0.90;;;0.90;;
59856;SDS011;45733;52.668;6.860;2023-07-31T07:01:40;0.85;;;0.85;;
59856;SDS011;45733;52.668;6.860;2023-07-31T07:04:05;0.90;;;0.90;;
59856;SDS011;45733;52.668;6.860;2023-07-31T07:06:31;0.70;;;0.70;;
59856;SDS011;45733;52.668;6.860;2023-07-31T07:08:56;0.90;;;0.90;;
59856;SDS011;45733;52.668;6.860;2023-07-31T07:11:22;0.85;;;0.85;;
59856;SDS011;45733;52.668;6.860;2023-07-31T07:13:48;0.85;;;0.85;;
59856;SDS011;45733;52.668;6.860;2023-07-31T07:16:14;0.82;;;0.82;;
59856;SDS011;45733;52.668;6.860;2023-07-31T07:18:40;0.80;;;0.80;;
59856;SDS011;45733;52.668;6.860;2023-07-31T07:21:05;0.98;;;0.98;;
59856;SDS011;45733;52.668;6.860;2023-07-31T07:23:31;0.70;;;0.70;;
59856;SDS011;45733;52.668;6.860;2023-07-31T07:25:56;0.70;;;0.70;;
59856;SDS011;45733;52.668;6.860;2023-07-31T07:28:22;0.90;;;0.90;;
59856;SDS011;45733;52.668;6.860;2023-07-31T07:30:51;0.95;;;0.95;;
59856;SDS011;45733;52.668;6.860;2023-07-31T07:33:20;0.90;;;0.90;;
59856;SDS011;45733;52.668;6.860;2023-07-31T07:35:46;0.60;;;0.60;;
59856;SDS011;45733;52.668;6.860;2023-07-31T07:38:13;1.03;;;1.03;;
59856;SDS011;45733;52.668;6.860;2023-07-31T07:40:39;0.90;;;0.90;;
59856;SDS011;45733;52.668;6.860;2023-07-31T07:43:05;1.08;;;1.08;;
59856;SDS011;45733;52.668;6.860;2023-07-31T07:45:31;1.05;;;1.05;;
59856;SDS011;45733;52.668;6.860;2023-07-31T07:47:57;0.98;;;0.98;;
59856;SDS011;45733;52.668;6.860;2023-07-31T07:50:24;0.98;;;0.98;;
59856;SDS011;45733;52.668;6.860;2023-07-31T07:52:50;1.08;;;1.08;;
59856;SDS011;45733;52.668;6.860;2023-07-31T07:55:16;1.02;;;1.02;;
59856;SDS011;45733;52.668;6.860;2023-07-31T07:57:41;0.98;;;0.98;;
59856;SDS011;45733;52.668;6.860;2023-07-31T08:00:09;1.10;;;1.10;;
59856;SDS011;45733;52.668;6.860;2023-07-31T08:02:35;1.05;;;1.05;;
59856;SDS011;45733;52.668;6.860;2023-07-31T08:05:01;0.80;;;0.80;;
59856;SDS011;45733;52.668;6.860;2023-07-31T08:07:27;1.13;;;1.13;;
59856;SDS011;45733;52.668;6.860;2023-07-31T08:09:52;1.10;;;1.10;;
59856;SDS011;45733;52.668;6.860;2023-07-31T08:12:18;1.13;;;1.13;;
59856;SDS011;45733;52.668;6.860;2023-07-31T08:14:44;1.13;;;1.13;;
59856;SDS011;45733;52.668;6.860;2023-07-31T08:17:09;1.23;;;1.23;;
59856;SDS011;45733;52.668;6.860;2023-07-31T08:19:35;1.25;;;1.25;;
59856;SDS011;45733;52.668;6.860;2023-07-31T08:22:01;1.23;;;1.23;;
59856;SDS011;45733;52.668;6.860;2023-07-31T08:24:26;1.20;;;1.20;;
59856;SDS011;45733;52.668;6.860;2023-07-31T08:26:52;1.23;;;1.23;;
59856;SDS011;45733;52.668;6.860;2023-07-31T08:29:18;1.27;;;1.27;;
59856;SDS011;45733;52.668;6.860;2023-07-31T08:31:43;1.23;;;1.23;;
59856;SDS011;45733;52.668;6.860;2023-07-31T08:34:09;1.30;;;1.30;;
59856;SDS011;45733;52.668;6.860;2023-07-31T08:36:34;1.35;;;1.33;;
59856;SDS011;45733;52.668;6.860;2023-07-31T08:39:00;1.23;;;1.23;;
59856;SDS011;45733;52.668;6.860;2023-07-31T08:41:26;1.25;;;1.25;;
59856;SDS011;45733;52.668;6.860;2023-07-31T08:43:52;1.52;;;1.42;;
59856;SDS011;45733;52.668;6.860;2023-07-31T08:46:19;1.35;;;1.35;;
59856;SDS011;45733;52.668;6.860;2023-07-31T08:48:46;1.25;;;1.25;;
59856;SDS011;45733;52.668;6.860;2023-07-31T08:51:14;1.38;;;1.38;;
59856;SDS011;45733;52.668;6.860;2023-07-31T08:53:40;1.50;;;1.45;;
59856;SDS011;45733;52.668;6.860;2023-07-31T08:56:06;1.52;;;1.42;;
59856;SDS011;45733;52.668;6.860;2023-07-31T08:58:32;1.63;;;1.52;;
59856;SDS011;45733;52.668;6.860;2023-07-31T09:01:01;1.60;;;1.50;;
59856;SDS011;45733;52.668;6.860;2023-07-31T09:03:28;1.60;;;1.50;;
59856;SDS011;45733;52.668;6.860;2023-07-31T09:05:59;1.63;;;1.52;;
59856;SDS011;45733;52.668;6.860;2023-07-31T09:08:26;1.70;;;1.60;;
59856;SDS011;45733;52.668;6.860;2023-07-31T09:10:58;1.70;;;1.60;;
59856;SDS011;45733;52.668;6.860;2023-07-31T09:13:27;1.80;;;1.70;;
59856;SDS011;45733;52.668;6.860;2023-07-31T09:15:55;1.80;;;1.70;;
59856;SDS011;45733;52.668;6.860;2023-07-31T09:18:20;1.85;;;1.75;;
59856;SDS011;45733;52.668;6.860;2023-07-31T09:21:06;1.90;;;1.80;;
59856;SDS011;45733;52.668;6.860;2023-07-31T09:23:45;2.10;;;2.00;;
59856;SDS011;45733;52.668;6.860;2023-07-31T09:29:01;2.10;;;2.00;;
59856;SDS011;45733;52.668;6.860;2023-07-31T09:31:40;2.00;;;1.90;;
59856;SDS011;45733;52.668;6.860;2023-07-31T09:34:07;2.00;;;1.90;;
59856;SDS011;45733;52.668;6.860;2023-07-31T09:36:38;2.08;;;1.98;;
59856;SDS011;45733;52.668;6.860;2023-07-31T09:39:05;2.10;;;2.00;;
59856;SDS011;45733;52.668;6.860;2023-07-31T09:41:42;2.10;;;2.00;;
59856;SDS011;45733;52.668;6.860;2023-07-31T09:44:09;2.22;;;2.13;;
59856;SDS011;45733;52.668;6.860;2023-07-31T09:46:35;2.17;;;2.08;;
59856;SDS011;45733;52.668;6.860;2023-07-31T09:49:09;2.20;;;2.10;;
59856;SDS011;45733;52.668;6.860;2023-07-31T09:51:39;2.30;;;2.20;;
59856;SDS011;45733;52.668;6.860;2023-07-31T09:54:09;2.25;;;2.15;;
59856;SDS011;45733;52.668;6.860;2023-07-31T09:56:37;2.25;;;2.15;;
59856;SDS011;45733;52.668;6.860;2023-07-31T09:59:07;2.20;;;2.10;;
59856;SDS011;45733;52.668;6.860;2023-07-31T10:01:37;2.33;;;2.22;;
59856;SDS011;45733;52.668;6.860;2023-07-31T10:04:04;2.20;;;2.10;;
59856;SDS011;45733;52.668;6.860;2023-07-31T10:06:33;2.22;;;2.13;;
59856;SDS011;45733;52.668;6.860;2023-07-31T10:09:00;2.28;;;2.17;;
59856;SDS011;45733;52.668;6.860;2023-07-31T10:11:39;2.22;;;2.13;;
59856;SDS011;45733;52.668;6.860;2023-07-31T10:14:09;2.17;;;2.08;;
59856;SDS011;45733;52.668;6.860;2023-07-31T10:16:37;2.42;;;2.33;;
59856;SDS011;45733;52.668;6.860;2023-07-31T10:19:04;2.35;;;2.25;;
59856;SDS011;45733;52.668;6.860;2023-07-31T10:21:31;2.38;;;2.28;;
59856;SDS011;45733;52.668;6.860;2023-07-31T10:24:01;2.30;;;2.20;;
59856;SDS011;45733;52.668;6.860;2023-07-31T10:26:28;2.38;;;2.28;;
59856;SDS011;45733;52.668;6.860;2023-07-31T10:28:55;2.15;;;2.05;;
59856;SDS011;45733;52.668;6.860;2023-07-31T10:31:23;2.55;;;2.45;;
59856;SDS011;45733;52.668;6.860;2023-07-31T10:33:50;2.20;;;2.10;;
59856;SDS011;45733;52.668;6.860;2023-07-31T10:36:20;2.20;;;2.10;;
59856;SDS011;45733;52.668;6.860;2023-07-31T10:38:46;2.28;;;2.17;;
59856;SDS011;45733;52.668;6.860;2023-07-31T10:41:14;2.33;;;2.22;;
59856;SDS011;45733;52.668;6.860;2023-07-31T10:43:39;2.13;;;2.03;;
59856;SDS011;45733;52.668;6.860;2023-07-31T10:46:12;1.98;;;1.88;;
59856;SDS011;45733;52.668;6.860;2023-07-31T10:48:39;2.17;;;2.08;;
59856;SDS011;45733;52.668;6.860;2023-07-31T10:51:12;2.00;;;1.90;;
59856;SDS011;45733;52.668;6.860;2023-07-31T10:53:38;1.90;;;1.80;;
59856;SDS011;45733;52.668;6.860;2023-07-31T10:56:06;1.90;;;1.80;;
59856;SDS011;45733;52.668;6.860;2023-07-31T10:58:33;1.98;;;1.88;;
59856;SDS011;45733;52.668;6.860;2023-07-31T11:01:00;1.98;;;1.88;;
59856;SDS011;45733;52.668;6.860;2023-07-31T11:03:47;1.92;;;1.83;;
59856;SDS011;45733;52.668;6.860;2023-07-31T11:06:17;2.00;;;1.90;;
59856;SDS011;45733;52.668;6.860;2023-07-31T11:08:43;1.92;;;1.83;;
59856;SDS011;45733;52.668;6.860;2023-07-31T11:11:12;2.00;;;1.90;;
59856;SDS011;45733;52.668;6.860;2023-07-31T11:16:15;1.87;;;1.77;;
59856;SDS011;45733;52.668;6.860;2023-07-31T11:18:44;1.85;;;1.75;;
59856;SDS011;45733;52.668;6.860;2023-07-31T11:21:14;1.75;;;1.65;;
59856;SDS011;45733;52.668;6.860;2023-07-31T11:23:41;1.67;;;1.58;;
59856;SDS011;45733;52.668;6.860;2023-07-31T11:26:17;1.98;;;1.88;;
59856;SDS011;45733;52.668;6.860;2023-07-31T11:28:46;1.85;;;1.75;;
59856;SDS011;45733;52.668;6.860;2023-07-31T11:31:13;1.77;;;1.67;;
59856;SDS011;45733;52.668;6.860;2023-07-31T11:33:38;1.80;;;1.70;;
59856;SDS011;45733;52.668;6.860;2023-07-31T11:36:04;1.88;;;1.77;;
59856;SDS011;45733;52.668;6.860;2023-07-31T11:38:31;1.70;;;1.60;;
59856;SDS011;45733;52.668;6.860;2023-07-31T11:40:59;1.98;;;1.88;;
59856;SDS011;45733;52.668;6.860;2023-07-31T11:43:27;1.98;;;1.88;;
59856;SDS011;45733;52.668;6.860;2023-07-31T11:45:57;1.73;;;1.63;;
59856;SDS011;45733;52.668;6.860;2023-07-31T11:48:31;1.73;;;1.63;;
59856;SDS011;45733;52.668;6.860;2023-07-31T11:51:02;1.75;;;1.65;;
59856;SDS011;45733;52.668;6.860;2023-07-31T11:55:58;1.60;;;1.55;;
59856;SDS011;45733;52.668;6.860;2023-07-31T11:58:25;1.60;;;1.58;;
59856;SDS011;45733;52.668;6.860;2023-07-31T12:00:52;1.60;;;1.55;;
59856;SDS011;45733;52.668;6.860;2023-07-31T12:03:18;1.77;;;1.67;;
59856;SDS011;45733;52.668;6.860;2023-07-31T12:05:46;1.85;;;1.75;;
59856;SDS011;45733;52.668;6.860;2023-07-31T12:08:13;1.67;;;1.60;;
59856;SDS011;45733;52.668;6.860;2023-07-31T12:10:39;1.75;;;1.65;;
59856;SDS011;45733;52.668;6.860;2023-07-31T12:13:10;1.92;;;1.83;;
59856;SDS011;45733;52.668;6.860;2023-07-31T12:15:41;1.80;;;1.70;;
59856;SDS011;45733;52.668;6.860;2023-07-31T12:18:08;1.65;;;1.58;;
59856;SDS011;45733;52.668;6.860;2023-07-31T12:20:45;1.65;;;1.60;;
59856;SDS011;45733;52.668;6.860;2023-07-31T12:23:16;1.80;;;1.70;;
59856;SDS011;45733;52.668;6.860;2023-07-31T12:25:43;1.85;;;1.75;;
59856;SDS011;45733;52.668;6.860;2023-07-31T12:28:09;1.45;;;1.45;;
59856;SDS011;45733;52.668;6.860;2023-07-31T12:30:38;1.63;;;1.58;;
59856;SDS011;45733;52.668;6.860;2023-07-31T12:33:06;1.52;;;1.50;;
59856;SDS011;45733;52.668;6.860;2023-07-31T12:35:37;1.70;;;1.65;;
59856;SDS011;45733;52.668;6.860;2023-07-31T12:38:05;1.65;;;1.60;;
59856;SDS011;45733;52.668;6.860;2023-07-31T12:40:31;1.50;;;1.50;;
59856;SDS011;45733;52.668;6.860;2023-07-31T12:42:57;1.50;;;1.50;;
59856;SDS011;45733;52.668;6.860;2023-07-31T12:45:25;1.65;;;1.60;;
59856;SDS011;45733;52.668;6.860;2023-07-31T12:47:52;1.75;;;1.70;;
59856;SDS011;45733;52.668;6.860;2023-07-31T12:50:17;1.63;;;1.60;;
59856;SDS011;45733;52.668;6.860;2023-07-31T12:52:43;1.48;;;1.48;;
59856;SDS011;45733;52.668;6.860;2023-07-31T12:55:09;1.67;;;1.65;;
59856;SDS011;45733;52.668;6.860;2023-07-31T12:57:36;1.42;;;1.42;;
59856;SDS011;45733;52.668;6.860;2023-07-31T13:00:02;1.40;;;1.40;;
59856;SDS011;45733;52.668;6.860;2023-07-31T13:02:28;1.60;;;1.58;;
59856;SDS011;45733;52.668;6.860;2023-07-31T13:04:54;1.60;;;1.60;;
59856;SDS011;45733;52.668;6.860;2023-07-31T13:07:21;1.52;;;1.50;;
59856;SDS011;45733;52.668;6.860;2023-07-31T13:09:48;1.58;;;1.55;;
59856;SDS011;45733;52.668;6.860;2023-07-31T13:12:13;1.40;;;1.40;;
59856;SDS011;45733;52.668;6.860;2023-07-31T13:14:39;1.25;;;1.25;;
59856;SDS011;45733;52.668;6.860;2023-07-31T13:17:05;1.77;;;1.70;;
59856;SDS011;45733;52.668;6.860;2023-07-31T13:19:31;2.00;;;1.90;;
59856;SDS011;45733;52.668;6.860;2023-07-31T13:21:56;1.65;;;1.55;;
59856;SDS011;45733;52.668;6.860;2023-07-31T13:24:22;1.80;;;1.70;;
59856;SDS011;45733;52.668;6.860;2023-07-31T13:26:48;1.75;;;1.65;;
59856;SDS011;45733;52.668;6.860;2023-07-31T13:29:13;1.88;;;1.77;;
59856;SDS011;45733;52.668;6.860;2023-07-31T13:31:39;1.63;;;1.55;;
59856;SDS011;45733;52.668;6.860;2023-07-31T13:34:05;1.80;;;1.70;;
59856;SDS011;45733;52.668;6.860;2023-07-31T13:36:30;1.90;;;1.80;;
59856;SDS011;45733;52.668;6.860;2023-07-31T13:38:56;1.83;;;1.73;;
59856;SDS011;45733;52.668;6.860;2023-07-31T13:41:22;1.65;;;1.58;;
59856;SDS011;45733;52.668;6.860;2023-07-31T13:43:47;1.80;;;1.70;;
59856;SDS011;45733;52.668;6.860;2023-07-31T13:46:13;1.63;;;1.55;;
59856;SDS011;45733;52.668;6.860;2023-07-31T13:48:38;1.98;;;1.88;;
59856;SDS011;45733;52.668;6.860;2023-07-31T13:51:04;1.58;;;1.50;;
59856;SDS011;45733;52.668;6.860;2023-07-31T13:53:30;1.88;;;1.77;;
59856;SDS011;45733;52.668;6.860;2023-07-31T13:55:56;2.03;;;1.92;;
59856;SDS011;45733;52.668;6.860;2023-07-31T13:58:21;1.80;;;1.70;;
59856;SDS011;45733;52.668;6.860;2023-07-31T14:00:47;1.52;;;1.50;;
59856;SDS011;45733;52.668;6.860;2023-07-31T14:03:13;1.15;;;1.15;;
59856;SDS011;45733;52.668;6.860;2023-07-31T14:05:38;1.73;;;1.63;;
59856;SDS011;45733;52.668;6.860;2023-07-31T14:08:04;1.85;;;1.75;;
59856;SDS011;45733;52.668;6.860;2023-07-31T14:10:30;1.50;;;1.48;;
59856;SDS011;45733;52.668;6.860;2023-07-31T14:12:55;1.98;;;1.88;;
59856;SDS011;45733;52.668;6.860;2023-07-31T14:15:21;1.65;;;1.58;;
59856;SDS011;45733;52.668;6.860;2023-07-31T14:17:47;1.42;;;1.35;;
59856;SDS011;45733;52.668;6.860;2023-07-31T14:20:13;1.83;;;1.73;;
59856;SDS011;45733;52.668;6.860;2023-07-31T14:22:38;1.40;;;1.35;;
59856;SDS011;45733;52.668;6.860;2023-07-31T14:25:04;1.13;;;1.13;;
59856;SDS011;45733;52.668;6.860;2023-07-31T14:27:30;1.58;;;1.55;;
59856;SDS011;45733;52.668;6.860;2023-07-31T14:29:56;1.42;;;1.42;;
59856;SDS011;45733;52.668;6.860;2023-07-31T14:32:22;1.65;;;1.60;;
59856;SDS011;45733;52.668;6.860;2023-07-31T14:34:50;1.50;;;1.50;;
59856;SDS011;45733;52.668;6.860;2023-07-31T14:37:16;1.58;;;1.58;;
59856;SDS011;45733;52.668;6.860;2023-07-31T14:39:41;1.52;;;1.50;;
59856;SDS011;45733;52.668;6.860;2023-07-31T14:42:08;1.65;;;1.60;;
59856;SDS011;45733;52.668;6.860;2023-07-31T14:44:34;1.45;;;1.45;;
59856;SDS011;45733;52.668;6.860;2023-07-31T14:47:00;1.45;;;1.45;;
59856;SDS011;45733;52.668;6.860;2023-07-31T14:49:25;1.50;;;1.50;;
59856;SDS011;45733;52.668;6.860;2023-07-31T14:51:53;1.60;;;1.55;;
59856;SDS011;45733;52.668;6.860;2023-07-31T14:54:19;1.65;;;1.60;;
59856;SDS011;45733;52.668;6.860;2023-07-31T14:56:45;1.77;;;1.67;;
59856;SDS011;45733;52.668;6.860;2023-07-31T14:59:10;1.65;;;1.60;;